Terminal Aerodrome Forecast
Issued by NWS

Home | Current Version | Previous Version | Text Only | Print | Product List | Glossary Off
Versions: 1 2 3 4 5 6 7 8 9 10 11 12 13 14 15 16 17 18 19 20

000
FTUS43 KTOP 250039 AAA
TAFMHK
TAF AMD
KMHK 250039Z 2501/2524 33012G20KT P6SM OVC025
      TEMPO 2501/2502 5SM -SHSN OVC020
     FM250200 33013G23KT P6SM SCT040 BKN050
     FM250900 30007KT P6SM SCT200
     FM251800 27006KT P6SM SCT200
     FM252000 24006KT P6SM SCT200=

USA.gov is the U.S. government's official web portal to all federal, state and local government web resources and services.